Charles City, Virginia
Current Conditions -  °F | °C
As of 4:35 AM on Sunday 26 Oct 2014 (Local Time) from KW96 Reporting Station
Clear Clear  
Wind Chill: 50°   Ceiling: Unl
Heat Index: 50°   Visibility: 10mi
Dew Point: 47°   Wind: 0mph
Humidity: 90%   Direction: NA
Pressure: 29.72"   Gusts: NA
Location:  37.34°N, 77.07°W
Report Text: KW96 260835Z AUTO 00000KT 10SM CLR 10/09 A2972 RMK AO1 T01000085
Loading
Personal Weather Stations






























Interactive Weather Map
Tropical Storm Tracking
New forecast layout! Learn more

10-Day Weather Forecast

Advertisements
Track Severe Weather on mobile